sensor_id;sensor_type;location;lat;lon;timestamp;temperature;humidity
13694;DHT22;6919;52.344;14.518;2023-06-01T00:01:20;13.80;1.00
13694;DHT22;6919;52.344;14.518;2023-06-01T00:03:50;13.80;1.00
13694;DHT22;6919;52.344;14.518;2023-06-01T00:06:19;13.80;1.00
13694;DHT22;6919;52.344;14.518;2023-06-01T00:08:47;13.90;1.00
13694;DHT22;6919;52.344;14.518;2023-06-01T00:11:15;13.80;1.00
13694;DHT22;6919;52.344;14.518;2023-06-01T00:13:44;13.80;1.00
13694;DHT22;6919;52.344;14.518;2023-06-01T00:16:13;13.80;1.00
13694;DHT22;6919;52.344;14.518;2023-06-01T00:18:42;13.60;1.00
13694;DHT22;6919;52.344;14.518;2023-06-01T00:21:12;13.60;1.00
13694;DHT22;6919;52.344;14.518;2023-06-01T00:23:41;13.50;1.00
13694;DHT22;6919;52.344;14.518;2023-06-01T00:26:09;13.60;1.00
13694;DHT22;6919;52.344;14.518;2023-06-01T00:28:38;13.80;1.00
13694;DHT22;6919;52.344;14.518;2023-06-01T00:31:06;13.90;1.00
13694;DHT22;6919;52.344;14.518;2023-06-01T00:33:35;13.90;1.00
13694;DHT22;6919;52.344;14.518;2023-06-01T00:36:04;13.90;1.00
13694;DHT22;6919;52.344;14.518;2023-06-01T00:38:34;13.80;1.00
13694;DHT22;6919;52.344;14.518;2023-06-01T00:41:02;13.70;1.00
13694;DHT22;6919;52.344;14.518;2023-06-01T00:43:31;13.60;1.00
13694;DHT22;6919;52.344;14.518;2023-06-01T00:45:59;13.50;1.00
13694;DHT22;6919;52.344;14.518;2023-06-01T00:48:28;13.60;1.00
13694;DHT22;6919;52.344;14.518;2023-06-01T00:50:56;13.80;1.00
13694;DHT22;6919;52.344;14.518;2023-06-01T00:53:26;13.70;1.00
13694;DHT22;6919;52.344;14.518;2023-06-01T00:55:56;13.60;5.40
13694;DHT22;6919;52.344;14.518;2023-06-01T00:58:25;13.70;1.00
13694;DHT22;6919;52.344;14.518;2023-06-01T01:00:54;13.70;1.00
13694;DHT22;6919;52.344;14.518;2023-06-01T01:03:22;13.90;99.90
13694;DHT22;6919;52.344;14.518;2023-06-01T01:05:56;14.00;1.00
13694;DHT22;6919;52.344;14.518;2023-06-01T01:08:46;13.90;1.00
13694;DHT22;6919;52.344;14.518;2023-06-01T01:11:31;13.90;1.00
13694;DHT22;6919;52.344;14.518;2023-06-01T01:14:03;13.70;1.00
13694;DHT22;6919;52.344;14.518;2023-06-01T01:16:42;13.70;1.00
13694;DHT22;6919;52.344;14.518;2023-06-01T01:19:30;13.70;1.00
13694;DHT22;6919;52.344;14.518;2023-06-01T01:22:25;13.60;1.00
13694;DHT22;6919;52.344;14.518;2023-06-01T01:25:30;13.50;1.00
13694;DHT22;6919;52.344;14.518;2023-06-01T01:28:32;13.30;44.50
13694;DHT22;6919;52.344;14.518;2023-06-01T01:31:03;13.50;66.80
13694;DHT22;6919;52.344;14.518;2023-06-01T01:33:33;13.50;99.90
13694;DHT22;6919;52.344;14.518;2023-06-01T01:36:04;13.60;99.90
13694;DHT22;6919;52.344;14.518;2023-06-01T01:38:34;13.80;1.00
13694;DHT22;6919;52.344;14.518;2023-06-01T01:41:03;13.80;1.00
13694;DHT22;6919;52.344;14.518;2023-06-01T01:43:34;13.70;1.00
13694;DHT22;6919;52.344;14.518;2023-06-01T01:46:11;13.60;36.50
13694;DHT22;6919;52.344;14.518;2023-06-01T01:48:50;13.50;99.90
13694;DHT22;6919;52.344;14.518;2023-06-01T01:51:30;13.70;26.80
13694;DHT22;6919;52.344;14.518;2023-06-01T01:54:05;13.60;99.90
13694;DHT22;6919;52.344;14.518;2023-06-01T01:56:35;13.60;99.90
13694;DHT22;6919;52.344;14.518;2023-06-01T01:59:07;13.60;99.90
13694;DHT22;6919;52.344;14.518;2023-06-01T02:01:36;13.50;99.90
13694;DHT22;6919;52.344;14.518;2023-06-01T02:04:08;13.60;99.90
13694;DHT22;6919;52.344;14.518;2023-06-01T02:06:37;13.60;99.90
13694;DHT22;6919;52.344;14.518;2023-06-01T02:09:05;13.50;99.90
13694;DHT22;6919;52.344;14.518;2023-06-01T02:11:34;13.50;99.90
13694;DHT22;6919;52.344;14.518;2023-06-01T02:14:04;13.60;99.90
13694;DHT22;6919;52.344;14.518;2023-06-01T02:16:33;13.60;99.90
13694;DHT22;6919;52.344;14.518;2023-06-01T02:19:02;13.50;1.00
13694;DHT22;6919;52.344;14.518;2023-06-01T02:21:32;13.50;1.00
13694;DHT22;6919;52.344;14.518;2023-06-01T02:24:00;13.50;1.00
13694;DHT22;6919;52.344;14.518;2023-06-01T02:26:32;13.50;1.00
13694;DHT22;6919;52.344;14.518;2023-06-01T02:29:02;13.40;1.00
13694;DHT22;6919;52.344;14.518;2023-06-01T02:31:34;13.30;1.00
13694;DHT22;6919;52.344;14.518;2023-06-01T02:34:02;13.30;4.10
13694;DHT22;6919;52.344;14.518;2023-06-01T02:36:31;13.30;99.90
13694;DHT22;6919;52.344;14.518;2023-06-01T02:39:01;13.30;99.90
13694;DHT22;6919;52.344;14.518;2023-06-01T02:41:29;13.30;99.90
13694;DHT22;6919;52.344;14.518;2023-06-01T02:43:58;13.40;99.90
13694;DHT22;6919;52.344;14.518;2023-06-01T02:46:26;13.50;99.90
13694;DHT22;6919;52.344;14.518;2023-06-01T02:48:56;13.50;99.90
13694;DHT22;6919;52.344;14.518;2023-06-01T02:51:24;13.50;1.00
13694;DHT22;6919;52.344;14.518;2023-06-01T02:53:53;13.50;1.00
13694;DHT22;6919;52.344;14.518;2023-06-01T02:56:21;13.50;1.00
13694;DHT22;6919;52.344;14.518;2023-06-01T02:58:49;13.50;1.00
13694;DHT22;6919;52.344;14.518;2023-06-01T03:01:18;13.50;62.50
13694;DHT22;6919;52.344;14.518;2023-06-01T03:03:46;13.50;99.90
13694;DHT22;6919;52.344;14.518;2023-06-01T03:06:16;13.50;99.90
13694;DHT22;6919;52.344;14.518;2023-06-01T03:08:48;13.50;1.00
13694;DHT22;6919;52.344;14.518;2023-06-01T03:11:16;13.50;1.00
13694;DHT22;6919;52.344;14.518;2023-06-01T03:13:44;13.50;99.90
13694;DHT22;6919;52.344;14.518;2023-06-01T03:16:13;13.50;1.00
13694;DHT22;6919;52.344;14.518;2023-06-01T03:18:43;13.50;1.00
13694;DHT22;6919;52.344;14.518;2023-06-01T03:21:11;13.50;1.00
13694;DHT22;6919;52.344;14.518;2023-06-01T03:23:41;13.50;1.00
13694;DHT22;6919;52.344;14.518;2023-06-01T03:26:10;13.50;99.90
13694;DHT22;6919;52.344;14.518;2023-06-01T03:28:40;13.40;99.90
13694;DHT22;6919;52.344;14.518;2023-06-01T03:31:08;13.50;1.00
13694;DHT22;6919;52.344;14.518;2023-06-01T03:33:38;13.60;99.90
13694;DHT22;6919;52.344;14.518;2023-06-01T03:36:07;13.60;99.90
13694;DHT22;6919;52.344;14.518;2023-06-01T03:38:35;13.60;1.00
13694;DHT22;6919;52.344;14.518;2023-06-01T03:41:05;13.60;1.00
13694;DHT22;6919;52.344;14.518;2023-06-01T03:43:33;13.60;1.00
13694;DHT22;6919;52.344;14.518;2023-06-01T03:46:02;13.70;1.00
13694;DHT22;6919;52.344;14.518;2023-06-01T03:48:30;13.80;1.00
13694;DHT22;6919;52.344;14.518;2023-06-01T03:50:58;13.90;99.90
13694;DHT22;6919;52.344;14.518;2023-06-01T03:53:27;13.90;99.90
13694;DHT22;6919;52.344;14.518;2023-06-01T03:55:58;13.90;99.90
13694;DHT22;6919;52.344;14.518;2023-06-01T03:58:29;13.90;1.00
13694;DHT22;6919;52.344;14.518;2023-06-01T04:00:57;13.90;99.90
13694;DHT22;6919;52.344;14.518;2023-06-01T04:03:28;13.90;1.00
13694;DHT22;6919;52.344;14.518;2023-06-01T04:05:57;13.90;1.00
13694;DHT22;6919;52.344;14.518;2023-06-01T04:08:26;13.90;1.00
13694;DHT22;6919;52.344;14.518;2023-06-01T04:10:56;13.90;99.90
13694;DHT22;6919;52.344;14.518;2023-06-01T04:13:24;14.10;1.00
13694;DHT22;6919;52.344;14.518;2023-06-01T04:15:57;14.20;1.00
13694;DHT22;6919;52.344;14.518;2023-06-01T04:18:25;14.30;1.00
13694;DHT22;6919;52.344;14.518;2023-06-01T04:20:54;14.40;99.90
13694;DHT22;6919;52.344;14.518;2023-06-01T04:23:22;14.50;1.00
13694;DHT22;6919;52.344;14.518;2023-06-01T04:25:51;14.60;1.00
13694;DHT22;6919;52.344;14.518;2023-06-01T04:28:20;14.70;99.90
13694;DHT22;6919;52.344;14.518;2023-06-01T04:30:51;14.80;1.00
13694;DHT22;6919;52.344;14.518;2023-06-01T04:33:21;15.10;99.90
13694;DHT22;6919;52.344;14.518;2023-06-01T04:35:51;15.30;99.90
13694;DHT22;6919;52.344;14.518;2023-06-01T04:38:20;15.50;99.90
13694;DHT22;6919;52.344;14.518;2023-06-01T04:40:51;15.70;99.90
13694;DHT22;6919;52.344;14.518;2023-06-01T04:43:21;15.90;1.00
13694;DHT22;6919;52.344;14.518;2023-06-01T04:45:50;16.00;1.10
13694;DHT22;6919;52.344;14.518;2023-06-01T04:48:20;16.20;1.00
13694;DHT22;6919;52.344;14.518;2023-06-01T04:50:49;16.30;99.90
13694;DHT22;6919;52.344;14.518;2023-06-01T04:53:17;16.40;99.90
13694;DHT22;6919;52.344;14.518;2023-06-01T04:55:46;16.50;1.00
13694;DHT22;6919;52.344;14.518;2023-06-01T04:58:15;16.70;1.00
13694;DHT22;6919;52.344;14.518;2023-06-01T05:00:45;16.90;99.90
13694;DHT22;6919;52.344;14.518;2023-06-01T05:03:14;17.10;1.00
13694;DHT22;6919;52.344;14.518;2023-06-01T05:05:44;17.20;1.00
13694;DHT22;6919;52.344;14.518;2023-06-01T05:08:13;17.30;1.00
13694;DHT22;6919;52.344;14.518;2023-06-01T05:10:41;17.30;1.00
13694;DHT22;6919;52.344;14.518;2023-06-01T05:13:10;17.50;1.00
13694;DHT22;6919;52.344;14.518;2023-06-01T05:15:38;17.50;1.00
13694;DHT22;6919;52.344;14.518;2023-06-01T05:18:06;17.70;1.00
13694;DHT22;6919;52.344;14.518;2023-06-01T05:20:35;17.70;1.00
13694;DHT22;6919;52.344;14.518;2023-06-01T05:23:05;17.90;1.00
13694;DHT22;6919;52.344;14.518;2023-06-01T05:25:33;18.00;1.00
13694;DHT22;6919;52.344;14.518;2023-06-01T05:28:02;17.80;1.00
13694;DHT22;6919;52.344;14.518;2023-06-01T05:30:30;18.10;1.00
13694;DHT22;6919;52.344;14.518;2023-06-01T05:32:58;18.40;99.90
13694;DHT22;6919;52.344;14.518;2023-06-01T05:35:27;18.20;99.90
13694;DHT22;6919;52.344;14.518;2023-06-01T05:37:56;18.10;99.90
13694;DHT22;6919;52.344;14.518;2023-06-01T05:40:25;17.70;99.90
13694;DHT22;6919;52.344;14.518;2023-06-01T05:42:54;17.50;1.00
13694;DHT22;6919;52.344;14.518;2023-06-01T05:45:22;17.80;1.00
13694;DHT22;6919;52.344;14.518;2023-06-01T05:47:51;18.00;99.90
13694;DHT22;6919;52.344;14.518;2023-06-01T05:50:19;18.00;99.90
13694;DHT22;6919;52.344;14.518;2023-06-01T05:52:47;18.30;99.90
13694;DHT22;6919;52.344;14.518;2023-06-01T05:55:16;18.60;99.90
13694;DHT22;6919;52.344;14.518;2023-06-01T05:57:45;18.90;99.90
13694;DHT22;6919;52.344;14.518;2023-06-01T06:00:15;18.50;99.90
13694;DHT22;6919;52.344;14.518;2023-06-01T06:02:44;18.40;99.90
13694;DHT22;6919;52.344;14.518;2023-06-01T06:05:12;18.10;99.90
13694;DHT22;6919;52.344;14.518;2023-06-01T06:07:41;18.00;99.90
13694;DHT22;6919;52.344;14.518;2023-06-01T06:10:11;17.60;1.00
13694;DHT22;6919;52.344;14.518;2023-06-01T06:15:10;18.00;1.00
13694;DHT22;6919;52.344;14.518;2023-06-01T06:17:38;18.30;99.90
13694;DHT22;6919;52.344;14.518;2023-06-01T06:22:37;18.50;99.90
13694;DHT22;6919;52.344;14.518;2023-06-01T06:25:06;18.70;99.90
13694;DHT22;6919;52.344;14.518;2023-06-01T06:27:35;18.50;99.90
13694;DHT22;6919;52.344;14.518;2023-06-01T06:30:04;18.30;99.90
13694;DHT22;6919;52.344;14.518;2023-06-01T06:32:35;18.40;99.90
13694;DHT22;6919;52.344;14.518;2023-06-01T06:35:04;18.70;99.90
13694;DHT22;6919;52.344;14.518;2023-06-01T06:37:33;19.00;99.90
13694;DHT22;6919;52.344;14.518;2023-06-01T06:40:01;19.40;99.90
13694;DHT22;6919;52.344;14.518;2023-06-01T06:42:30;19.80;99.90
13694;DHT22;6919;52.344;14.518;2023-06-01T06:44:58;19.80;99.90
13694;DHT22;6919;52.344;14.518;2023-06-01T06:47:27;19.60;99.90
13694;DHT22;6919;52.344;14.518;2023-06-01T06:49:56;20.00;99.90
13694;DHT22;6919;52.344;14.518;2023-06-01T06:52:25;20.10;99.90
13694;DHT22;6919;52.344;14.518;2023-06-01T06:54:53;20.10;99.90
13694;DHT22;6919;52.344;14.518;2023-06-01T06:57:21;19.80;99.90
13694;DHT22;6919;52.344;14.518;2023-06-01T06:59:50;19.70;99.90
13694;DHT22;6919;52.344;14.518;2023-06-01T07:02:18;19.70;99.90
13694;DHT22;6919;52.344;14.518;2023-06-01T07:04:47;19.40;99.90
13694;DHT22;6919;52.344;14.518;2023-06-01T07:07:17;19.30;99.90
13694;DHT22;6919;52.344;14.518;2023-06-01T07:09:45;19.20;99.90
13694;DHT22;6919;52.344;14.518;2023-06-01T07:12:13;18.70;99.90
13694;DHT22;6919;52.344;14.518;2023-06-01T07:14:43;19.00;99.90
13694;DHT22;6919;52.344;14.518;2023-06-01T07:17:12;19.40;99.90
13694;DHT22;6919;52.344;14.518;2023-06-01T07:19:41;19.70;99.90
13694;DHT22;6919;52.344;14.518;2023-06-01T07:22:09;19.80;99.90
13694;DHT22;6919;52.344;14.518;2023-06-01T07:24:39;19.90;99.90
13694;DHT22;6919;52.344;14.518;2023-06-01T07:27:08;20.30;99.90
13694;DHT22;6919;52.344;14.518;2023-06-01T07:29:36;20.50;99.90
13694;DHT22;6919;52.344;14.518;2023-06-01T07:32:06;20.40;99.90
13694;DHT22;6919;52.344;14.518;2023-06-01T07:34:35;20.40;99.90
13694;DHT22;6919;52.344;14.518;2023-06-01T07:37:03;20.10;99.90
13694;DHT22;6919;52.344;14.518;2023-06-01T07:39:45;19.80;99.90
13694;DHT22;6919;52.344;14.518;2023-06-01T07:42:13;20.30;99.90
13694;DHT22;6919;52.344;14.518;2023-06-01T07:44:42;20.50;99.90
13694;DHT22;6919;52.344;14.518;2023-06-01T07:47:11;20.50;99.90
13694;DHT22;6919;52.344;14.518;2023-06-01T07:49:39;20.80;99.90
13694;DHT22;6919;52.344;14.518;2023-06-01T07:52:08;20.80;99.90
13694;DHT22;6919;52.344;14.518;2023-06-01T07:54:36;20.70;99.90
13694;DHT22;6919;52.344;14.518;2023-06-01T07:57:06;20.70;99.90
13694;DHT22;6919;52.344;14.518;2023-06-01T07:59:35;20.60;99.90
13694;DHT22;6919;52.344;14.518;2023-06-01T08:02:03;19.80;99.90
13694;DHT22;6919;52.344;14.518;2023-06-01T08:04:32;19.10;99.90
13694;DHT22;6919;52.344;14.518;2023-06-01T08:07:01;18.80;99.90
13694;DHT22;6919;52.344;14.518;2023-06-01T08:09:31;18.90;99.90
13694;DHT22;6919;52.344;14.518;2023-06-01T08:11:59;19.30;99.90
13694;DHT22;6919;52.344;14.518;2023-06-01T08:14:29;19.60;99.90
13694;DHT22;6919;52.344;14.518;2023-06-01T08:16:59;20.00;99.90
13694;DHT22;6919;52.344;14.518;2023-06-01T08:19:28;20.40;99.90
13694;DHT22;6919;52.344;14.518;2023-06-01T08:21:57;20.30;99.90
13694;DHT22;6919;52.344;14.518;2023-06-01T08:24:26;20.20;99.90
13694;DHT22;6919;52.344;14.518;2023-06-01T08:26:55;20.30;99.90
13694;DHT22;6919;52.344;14.518;2023-06-01T08:29:24;19.60;99.90
13694;DHT22;6919;52.344;14.518;2023-06-01T08:32:09;19.70;99.90
13694;DHT22;6919;52.344;14.518;2023-06-01T08:34:37;20.10;99.90
13694;DHT22;6919;52.344;14.518;2023-06-01T08:37:05;20.10;99.90
13694;DHT22;6919;52.344;14.518;2023-06-01T08:39:34;20.00;99.90
13694;DHT22;6919;52.344;14.518;2023-06-01T08:42:08;19.70;99.90
13694;DHT22;6919;52.344;14.518;2023-06-01T08:44:42;19.90;99.90
13694;DHT22;6919;52.344;14.518;2023-06-01T08:47:13;20.10;99.90
13694;DHT22;6919;52.344;14.518;2023-06-01T08:49:42;20.30;99.90
13694;DHT22;6919;52.344;14.518;2023-06-01T08:52:13;20.10;99.90
13694;DHT22;6919;52.344;14.518;2023-06-01T08:54:47;20.20;99.90
13694;DHT22;6919;52.344;14.518;2023-06-01T08:57:15;20.40;99.90
13694;DHT22;6919;52.344;14.518;2023-06-01T08:59:45;19.70;99.90
13694;DHT22;6919;52.344;14.518;2023-06-01T09:02:15;19.60;99.90
13694;DHT22;6919;52.344;14.518;2023-06-01T09:04:43;19.70;99.90
13694;DHT22;6919;52.344;14.518;2023-06-01T09:07:13;19.70;99.90
13694;DHT22;6919;52.344;14.518;2023-06-01T09:09:43;19.80;99.90
13694;DHT22;6919;52.344;14.518;2023-06-01T09:12:22;19.70;99.90
13694;DHT22;6919;52.344;14.518;2023-06-01T09:15:08;19.90;99.90
13694;DHT22;6919;52.344;14.518;2023-06-01T09:17:41;19.60;99.90
13694;DHT22;6919;52.344;14.518;2023-06-01T09:20:14;19.30;99.90
13694;DHT22;6919;52.344;14.518;2023-06-01T09:22:50;19.40;99.90
13694;DHT22;6919;52.344;14.518;2023-06-01T09:25:25;19.20;99.90
13694;DHT22;6919;52.344;14.518;2023-06-01T09:27:56;19.50;99.90
13694;DHT22;6919;52.344;14.518;2023-06-01T09:30:37;19.60;99.90
13694;DHT22;6919;52.344;14.518;2023-06-01T09:33:10;19.60;99.90
13694;DHT22;6919;52.344;14.518;2023-06-01T09:35:42;19.80;99.90
13694;DHT22;6919;52.344;14.518;2023-06-01T09:38:19;20.00;99.90
13694;DHT22;6919;52.344;14.518;2023-06-01T09:40:56;20.00;23.80
13694;DHT22;6919;52.344;14.518;2023-06-01T09:43:25;20.60;88.60
13694;DHT22;6919;52.344;14.518;2023-06-01T09:46:06;20.70;89.00
13694;DHT22;6919;52.344;14.518;2023-06-01T09:48:37;20.30;79.70
13694;DHT22;6919;52.344;14.518;2023-06-01T09:51:20;20.30;90.30
13694;DHT22;6919;52.344;14.518;2023-06-01T09:53:50;20.50;82.10
13694;DHT22;6919;52.344;14.518;2023-06-01T09:56:19;19.90;87.20
13694;DHT22;6919;52.344;14.518;2023-06-01T09:58:47;19.60;86.00
13694;DHT22;6919;52.344;14.518;2023-06-01T10:01:16;19.30;90.00
13694;DHT22;6919;52.344;14.518;2023-06-01T10:03:48;19.50;90.00
13694;DHT22;6919;52.344;14.518;2023-06-01T10:06:20;19.80;99.90
13694;DHT22;6919;52.344;14.518;2023-06-01T10:08:50;19.90;99.90
13694;DHT22;6919;52.344;14.518;2023-06-01T10:11:19;19.60;1.00
13694;DHT22;6919;52.344;14.518;2023-06-01T10:13:49;19.90;99.90
13694;DHT22;6919;52.344;14.518;2023-06-01T10:16:18;20.40;80.50
13694;DHT22;6919;52.344;14.518;2023-06-01T10:18:48;20.70;77.90
13694;DHT22;6919;52.344;14.518;2023-06-01T10:21:17;21.00;74.70
13694;DHT22;6919;52.344;14.518;2023-06-01T10:23:46;21.20;75.80
13694;DHT22;6919;52.344;14.518;2023-06-01T10:26:16;21.60;81.60
13694;DHT22;6919;52.344;14.518;2023-06-01T10:28:47;22.00;78.20
13694;DHT22;6919;52.344;14.518;2023-06-01T10:31:34;22.00;70.70
13694;DHT22;6919;52.344;14.518;2023-06-01T10:34:06;21.50;63.40
13694;DHT22;6919;52.344;14.518;2023-06-01T10:37:16;21.70;63.40
13694;DHT22;6919;52.344;14.518;2023-06-01T10:39:45;21.90;66.60
13694;DHT22;6919;52.344;14.518;2023-06-01T10:42:36;22.30;62.50
13694;DHT22;6919;52.344;14.518;2023-06-01T10:45:08;22.30;59.80
13694;DHT22;6919;52.344;14.518;2023-06-01T10:48:07;22.20;59.40
13694;DHT22;6919;52.344;14.518;2023-06-01T10:50:40;21.80;60.00
13694;DHT22;6919;52.344;14.518;2023-06-01T10:53:26;22.20;56.60
13694;DHT22;6919;52.344;14.518;2023-06-01T10:56:21;22.40;59.60
13694;DHT22;6919;52.344;14.518;2023-06-01T10:59:09;22.50;55.60
13694;DHT22;6919;52.344;14.518;2023-06-01T11:01:46;22.30;56.10
13694;DHT22;6919;52.344;14.518;2023-06-01T11:04:14;22.30;57.60
13694;DHT22;6919;52.344;14.518;2023-06-01T11:06:44;22.60;55.40
13694;DHT22;6919;52.344;14.518;2023-06-01T11:09:13;23.00;53.60
13694;DHT22;6919;52.344;14.518;2023-06-01T11:12:01;22.70;53.20
13694;DHT22;6919;52.344;14.518;2023-06-01T11:14:30;22.40;53.30
13694;DHT22;6919;52.344;14.518;2023-06-01T11:17:28;22.70;51.80
13694;DHT22;6919;52.344;14.518;2023-06-01T11:20:01;23.00;51.10
13694;DHT22;6919;52.344;14.518;2023-06-01T11:22:38;23.30;51.50
13694;DHT22;6919;52.344;14.518;2023-06-01T11:25:08;23.30;48.70
13694;DHT22;6919;52.344;14.518;2023-06-01T11:27:44;23.10;47.50
13694;DHT22;6919;52.344;14.518;2023-06-01T11:30:18;22.80;49.20
13694;DHT22;6919;52.344;14.518;2023-06-01T11:32:51;23.10;51.60
13694;DHT22;6919;52.344;14.518;2023-06-01T11:35:21;23.00;49.50
13694;DHT22;6919;52.344;14.518;2023-06-01T11:37:55;22.90;49.20
13694;DHT22;6919;52.344;14.518;2023-06-01T11:40:24;23.30;48.50
13694;DHT22;6919;52.344;14.518;2023-06-01T11:43:00;23.50;49.60
13694;DHT22;6919;52.344;14.518;2023-06-01T11:45:29;23.50;48.50
13694;DHT22;6919;52.344;14.518;2023-06-01T11:47:57;23.40;49.60
13694;DHT22;6919;52.344;14.518;2023-06-01T11:50:36;23.70;48.80
13694;DHT22;6919;52.344;14.518;2023-06-01T11:53:15;23.60;43.60
13694;DHT22;6919;52.344;14.518;2023-06-01T11:55:53;23.70;45.20
13694;DHT22;6919;52.344;14.518;2023-06-01T11:58:23;23.50;45.90
13694;DHT22;6919;52.344;14.518;2023-06-01T12:00:53;23.70;46.30
13694;DHT22;6919;52.344;14.518;2023-06-01T12:03:21;23.70;45.00
13694;DHT22;6919;52.344;14.518;2023-06-01T12:05:52;23.90;43.80
13694;DHT22;6919;52.344;14.518;2023-06-01T12:08:23;24.00;42.20
13694;DHT22;6919;52.344;14.518;2023-06-01T12:10:54;23.60;41.00
13694;DHT22;6919;52.344;14.518;2023-06-01T12:13:23;23.50;41.40
13694;DHT22;6919;52.344;14.518;2023-06-01T12:15:52;23.40;43.20
13694;DHT22;6919;52.344;14.518;2023-06-01T12:18:28;23.70;41.30
13694;DHT22;6919;52.344;14.518;2023-06-01T12:20:58;23.50;39.90
13694;DHT22;6919;52.344;14.518;2023-06-01T12:23:28;23.50;41.50
13694;DHT22;6919;52.344;14.518;2023-06-01T12:25:57;23.30;39.60
13694;DHT22;6919;52.344;14.518;2023-06-01T12:28:27;23.70;42.10
13694;DHT22;6919;52.344;14.518;2023-06-01T12:31:08;23.70;41.40
13694;DHT22;6919;52.344;14.518;2023-06-01T12:33:40;23.40;39.70
13694;DHT22;6919;52.344;14.518;2023-06-01T12:36:10;23.50;39.50
13694;DHT22;6919;52.344;14.518;2023-06-01T12:38:56;23.30;39.40
13694;DHT22;6919;52.344;14.518;2023-06-01T12:41:26;23.30;42.20
13694;DHT22;6919;52.344;14.518;2023-06-01T12:43:56;23.70;40.90
13694;DHT22;6919;52.344;14.518;2023-06-01T12:46:26;23.70;38.20
13694;DHT22;6919;52.344;14.518;2023-06-01T12:49:11;24.50;40.00
13694;DHT22;6919;52.344;14.518;2023-06-01T12:51:40;24.30;35.80
13694;DHT22;6919;52.344;14.518;2023-06-01T12:54:10;24.70;38.10
13694;DHT22;6919;52.344;14.518;2023-06-01T12:56:38;25.50;37.30
13694;DHT22;6919;52.344;14.518;2023-06-01T12:59:07;26.30;34.10
13694;DHT22;6919;52.344;14.518;2023-06-01T13:01:35;27.10;32.10
13694;DHT22;6919;52.344;14.518;2023-06-01T13:04:05;27.60;32.10
13694;DHT22;6919;52.344;14.518;2023-06-01T13:06:35;27.50;29.40
13694;DHT22;6919;52.344;14.518;2023-06-01T13:09:05;27.00;30.00
13694;DHT22;6919;52.344;14.518;2023-06-01T13:11:35;27.20;29.30
13694;DHT22;6919;52.344;14.518;2023-06-01T13:14:04;27.30;29.30
13694;DHT22;6919;52.344;14.518;2023-06-01T13:16:32;27.90;28.20
13694;DHT22;6919;52.344;14.518;2023-06-01T13:19:01;28.60;27.80
13694;DHT22;6919;52.344;14.518;2023-06-01T13:21:31;28.40;27.40
13694;DHT22;6919;52.344;14.518;2023-06-01T13:24:00;28.60;25.90
13694;DHT22;6919;52.344;14.518;2023-06-01T13:26:30;29.10;27.20
13694;DHT22;6919;52.344;14.518;2023-06-01T13:28:59;29.60;25.40
13694;DHT22;6919;52.344;14.518;2023-06-01T13:31:28;29.40;24.50
13694;DHT22;6919;52.344;14.518;2023-06-01T13:33:57;28.70;24.40
13694;DHT22;6919;52.344;14.518;2023-06-01T13:36:25;29.40;24.70
13694;DHT22;6919;52.344;14.518;2023-06-01T13:38:53;29.40;23.30
13694;DHT22;6919;52.344;14.518;2023-06-01T13:41:22;29.00;25.50
13694;DHT22;6919;52.344;14.518;2023-06-01T13:43:51;29.30;24.70
13694;DHT22;6919;52.344;14.518;2023-06-01T13:46:20;29.70;24.10
13694;DHT22;6919;52.344;14.518;2023-06-01T13:48:49;29.40;23.40
13694;DHT22;6919;52.344;14.518;2023-06-01T13:51:17;29.70;25.60
13694;DHT22;6919;52.344;14.518;2023-06-01T13:53:46;29.60;22.90
13694;DHT22;6919;52.344;14.518;2023-06-01T13:56:14;28.70;23.60
13694;DHT22;6919;52.344;14.518;2023-06-01T13:58:42;29.20;23.40
13694;DHT22;6919;52.344;14.518;2023-06-01T14:01:11;29.60;23.30
13694;DHT22;6919;52.344;14.518;2023-06-01T14:03:40;29.60;23.30
13694;DHT22;6919;52.344;14.518;2023-06-01T14:06:09;28.80;23.70
13694;DHT22;6919;52.344;14.518;2023-06-01T14:08:37;29.20;24.20
13694;DHT22;6919;52.344;14.518;2023-06-01T14:11:05;29.60;24.10
13694;DHT22;6919;52.344;14.518;2023-06-01T14:13:34;29.70;23.10
13694;DHT22;6919;52.344;14.518;2023-06-01T14:16:02;29.60;24.00
13694;DHT22;6919;52.344;14.518;2023-06-01T14:18:31;29.10;23.20
13694;DHT22;6919;52.344;14.518;2023-06-01T14:21:00;29.70;23.50
13694;DHT22;6919;52.344;14.518;2023-06-01T14:23:29;29.90;23.80
13694;DHT22;6919;52.344;14.518;2023-06-01T14:25:57;29.10;22.60
13694;DHT22;6919;52.344;14.518;2023-06-01T14:28:26;29.40;23.30
13694;DHT22;6919;52.344;14.518;2023-06-01T14:30:54;29.20;23.00
13694;DHT22;6919;52.344;14.518;2023-06-01T14:33:23;29.20;23.20
13694;DHT22;6919;52.344;14.518;2023-06-01T14:35:52;28.90;23.40
13694;DHT22;6919;52.344;14.518;2023-06-01T14:38:21;29.20;22.70
13694;DHT22;6919;52.344;14.518;2023-06-01T14:40:50;29.90;23.00
13694;DHT22;6919;52.344;14.518;2023-06-01T14:43:18;29.80;21.90
13694;DHT22;6919;52.344;14.518;2023-06-01T14:45:47;29.20;22.10
13694;DHT22;6919;52.344;14.518;2023-06-01T14:48:15;29.30;22.70
13694;DHT22;6919;52.344;14.518;2023-06-01T14:50:43;29.20;22.60
13694;DHT22;6919;52.344;14.518;2023-06-01T14:53:12;29.30;22.70
13694;DHT22;6919;52.344;14.518;2023-06-01T14:55:41;28.80;22.50
13694;DHT22;6919;52.344;14.518;2023-06-01T14:58:10;28.40;22.50
13694;DHT22;6919;52.344;14.518;2023-06-01T15:00:38;28.30;23.60
13694;DHT22;6919;52.344;14.518;2023-06-01T15:03:07;28.60;23.30
13694;DHT22;6919;52.344;14.518;2023-06-01T15:05:36;28.90;23.80
13694;DHT22;6919;52.344;14.518;2023-06-01T15:08:05;28.10;23.20
13694;DHT22;6919;52.344;14.518;2023-06-01T15:10:34;28.30;23.80
13694;DHT22;6919;52.344;14.518;2023-06-01T15:13:04;27.40;24.50
13694;DHT22;6919;52.344;14.518;2023-06-01T15:15:32;27.90;24.40
13694;DHT22;6919;52.344;14.518;2023-06-01T15:18:00;27.60;23.70
13694;DHT22;6919;52.344;14.518;2023-06-01T15:20:29;26.70;24.40
13694;DHT22;6919;52.344;14.518;2023-06-01T15:22:57;26.10;24.50
13694;DHT22;6919;52.344;14.518;2023-06-01T15:25:26;26.20;25.00
13694;DHT22;6919;52.344;14.518;2023-06-01T15:27:54;26.10;26.00
13694;DHT22;6919;52.344;14.518;2023-06-01T15:30:24;25.90;26.20
13694;DHT22;6919;52.344;14.518;2023-06-01T15:32:53;25.60;25.60
13694;DHT22;6919;52.344;14.518;2023-06-01T15:35:34;25.20;26.50
13694;DHT22;6919;52.344;14.518;2023-06-01T15:38:03;24.90;26.30
13694;DHT22;6919;52.344;14.518;2023-06-01T15:40:31;24.90;27.30
13694;DHT22;6919;52.344;14.518;2023-06-01T15:43:00;24.70;26.90
13694;DHT22;6919;52.344;14.518;2023-06-01T15:45:30;25.10;27.20
13694;DHT22;6919;52.344;14.518;2023-06-01T15:47:58;25.10;27.30
13694;DHT22;6919;52.344;14.518;2023-06-01T15:50:27;25.00;26.90
13694;DHT22;6919;52.344;14.518;2023-06-01T15:52:56;24.90;27.60
13694;DHT22;6919;52.344;14.518;2023-06-01T15:55:24;24.90;26.40
13694;DHT22;6919;52.344;14.518;2023-06-01T15:57:53;24.80;27.80
13694;DHT22;6919;52.344;14.518;2023-06-01T16:00:21;24.50;28.10
13694;DHT22;6919;52.344;14.518;2023-06-01T16:02:51;24.60;27.90